sensor_id;sensor_type;location;lat;lon;timestamp;P1;durP1;ratioP1;P2;durP2;ratioP2
21505;SDS011;10914;48.886;9.394;2022-10-16T00:01:19;72.13;;;68.47;;
21505;SDS011;10914;48.886;9.394;2022-10-16T00:03:45;62.05;;;59.00;;
21505;SDS011;10914;48.886;9.394;2022-10-16T00:06:10;71.75;;;68.35;;
21505;SDS011;10914;48.886;9.394;2022-10-16T00:08:36;87.20;;;83.15;;
21505;SDS011;10914;48.886;9.394;2022-10-16T00:11:06;63.85;;;60.90;;
21505;SDS011;10914;48.886;9.394;2022-10-16T00:13:32;72.45;;;68.95;;
21505;SDS011;10914;48.886;9.394;2022-10-16T00:15:58;58.90;;;56.00;;
21505;SDS011;10914;48.886;9.394;2022-10-16T00:18:24;67.38;;;64.13;;
21505;SDS011;10914;48.886;9.394;2022-10-16T00:20:49;55.00;;;52.30;;
21505;SDS011;10914;48.886;9.394;2022-10-16T00:23:15;75.80;;;72.15;;
21505;SDS011;10914;48.886;9.394;2022-10-16T00:25:40;79.82;;;75.93;;
21505;SDS011;10914;48.886;9.394;2022-10-16T00:28:05;67.30;;;63.97;;
21505;SDS011;10914;48.886;9.394;2022-10-16T00:30:30;62.90;;;59.73;;
21505;SDS011;10914;48.886;9.394;2022-10-16T00:32:56;57.85;;;55.15;;
21505;SDS011;10914;48.886;9.394;2022-10-16T00:35:21;55.58;;;52.78;;
21505;SDS011;10914;48.886;9.394;2022-10-16T00:37:46;40.50;;;38.53;;
21505;SDS011;10914;48.886;9.394;2022-10-16T00:40:12;34.10;;;32.10;;
21505;SDS011;10914;48.886;9.394;2022-10-16T00:42:37;62.25;;;59.33;;
21505;SDS011;10914;48.886;9.394;2022-10-16T00:45:02;58.08;;;55.38;;
21505;SDS011;10914;48.886;9.394;2022-10-16T00:47:35;69.28;;;65.80;;
21505;SDS011;10914;48.886;9.394;2022-10-16T00:50:04;66.30;;;63.08;;
21505;SDS011;10914;48.886;9.394;2022-10-16T00:52:31;94.85;;;90.22;;
21505;SDS011;10914;48.886;9.394;2022-10-16T00:54:56;79.13;;;75.20;;
21505;SDS011;10914;48.886;9.394;2022-10-16T00:57:22;60.70;;;57.63;;
21505;SDS011;10914;48.886;9.394;2022-10-16T00:59:47;66.63;;;63.33;;
21505;SDS011;10914;48.886;9.394;2022-10-16T01:02:14;62.13;;;59.28;;
21505;SDS011;10914;48.886;9.394;2022-10-16T01:04:50;98.78;;;94.13;;
21505;SDS011;10914;48.886;9.394;2022-10-16T01:15:25;86.53;;;82.45;;
21505;SDS011;10914;48.886;9.394;2022-10-16T01:17:57;59.55;;;56.35;;
21505;SDS011;10914;48.886;9.394;2022-10-16T01:20:37;60.10;;;56.95;;
21505;SDS011;10914;48.886;9.394;2022-10-16T01:23:06;56.92;;;54.00;;
21505;SDS011;10914;48.886;9.394;2022-10-16T01:28:10;50.20;;;47.78;;
21505;SDS011;10914;48.886;9.394;2022-10-16T01:30:37;59.60;;;56.67;;
21505;SDS011;10914;48.886;9.394;2022-10-16T01:33:03;52.72;;;50.05;;
21505;SDS011;10914;48.886;9.394;2022-10-16T01:36:05;56.13;;;53.22;;
21505;SDS011;10914;48.886;9.394;2022-10-16T01:38:29;52.85;;;50.28;;
21505;SDS011;10914;48.886;9.394;2022-10-16T01:40:58;48.40;;;45.95;;
21505;SDS011;10914;48.886;9.394;2022-10-16T01:43:26;41.05;;;39.05;;
21505;SDS011;10914;48.886;9.394;2022-10-16T01:45:53;58.25;;;55.53;;
21505;SDS011;10914;48.886;9.394;2022-10-16T01:48:19;61.25;;;58.40;;
21505;SDS011;10914;48.886;9.394;2022-10-16T01:50:49;56.97;;;54.25;;
21505;SDS011;10914;48.886;9.394;2022-10-16T01:53:15;50.47;;;47.85;;
21505;SDS011;10914;48.886;9.394;2022-10-16T01:55:41;51.03;;;48.50;;
21505;SDS011;10914;48.886;9.394;2022-10-16T01:58:10;50.58;;;48.13;;
21505;SDS011;10914;48.886;9.394;2022-10-16T02:00:37;47.90;;;45.58;;
21505;SDS011;10914;48.886;9.394;2022-10-16T02:03:02;51.60;;;48.97;;
21505;SDS011;10914;48.886;9.394;2022-10-16T02:05:45;50.97;;;48.33;;
21505;SDS011;10914;48.886;9.394;2022-10-16T02:08:11;48.85;;;46.40;;
21505;SDS011;10914;48.886;9.394;2022-10-16T02:10:36;49.38;;;46.97;;
21505;SDS011;10914;48.886;9.394;2022-10-16T02:13:03;47.55;;;45.15;;
21505;SDS011;10914;48.886;9.394;2022-10-16T02:15:31;40.75;;;38.58;;
21505;SDS011;10914;48.886;9.394;2022-10-16T02:17:56;41.92;;;39.85;;
21505;SDS011;10914;48.886;9.394;2022-10-16T02:20:24;43.03;;;40.83;;
21505;SDS011;10914;48.886;9.394;2022-10-16T02:22:50;57.95;;;55.15;;
21505;SDS011;10914;48.886;9.394;2022-10-16T02:25:24;43.92;;;41.78;;
21505;SDS011;10914;48.886;9.394;2022-10-16T02:27:54;42.33;;;40.33;;
21505;SDS011;10914;48.886;9.394;2022-10-16T02:30:36;46.40;;;44.10;;
21505;SDS011;10914;48.886;9.394;2022-10-16T02:33:03;37.60;;;35.75;;
21505;SDS011;10914;48.886;9.394;2022-10-16T02:35:30;47.40;;;45.03;;
21505;SDS011;10914;48.886;9.394;2022-10-16T02:37:55;55.35;;;52.75;;
21505;SDS011;10914;48.886;9.394;2022-10-16T02:40:21;62.38;;;59.35;;
21505;SDS011;10914;48.886;9.394;2022-10-16T02:42:49;56.28;;;53.63;;
21505;SDS011;10914;48.886;9.394;2022-10-16T02:45:14;55.35;;;52.58;;
21505;SDS011;10914;48.886;9.394;2022-10-16T02:47:40;44.47;;;42.23;;
21505;SDS011;10914;48.886;9.394;2022-10-16T02:50:05;60.28;;;57.50;;
21505;SDS011;10914;48.886;9.394;2022-10-16T02:52:30;56.70;;;53.95;;
21505;SDS011;10914;48.886;9.394;2022-10-16T02:54:55;48.75;;;46.45;;
21505;SDS011;10914;48.886;9.394;2022-10-16T02:57:21;50.67;;;48.13;;
21505;SDS011;10914;48.886;9.394;2022-10-16T02:59:46;57.75;;;54.92;;
21505;SDS011;10914;48.886;9.394;2022-10-16T03:02:11;49.85;;;47.50;;
21505;SDS011;10914;48.886;9.394;2022-10-16T03:04:36;46.20;;;43.83;;
21505;SDS011;10914;48.886;9.394;2022-10-16T03:07:02;42.37;;;40.13;;
21505;SDS011;10914;48.886;9.394;2022-10-16T03:09:27;46.13;;;43.95;;
21505;SDS011;10914;48.886;9.394;2022-10-16T03:11:52;39.20;;;37.27;;
21505;SDS011;10914;48.886;9.394;2022-10-16T03:14:17;51.22;;;48.70;;
21505;SDS011;10914;48.886;9.394;2022-10-16T03:16:43;47.23;;;45.00;;
21505;SDS011;10914;48.886;9.394;2022-10-16T03:19:08;47.87;;;45.63;;
21505;SDS011;10914;48.886;9.394;2022-10-16T03:21:33;42.13;;;39.92;;
21505;SDS011;10914;48.886;9.394;2022-10-16T03:23:58;43.38;;;41.20;;
21505;SDS011;10914;48.886;9.394;2022-10-16T03:26:23;41.87;;;39.77;;
21505;SDS011;10914;48.886;9.394;2022-10-16T03:28:49;44.97;;;42.87;;
21505;SDS011;10914;48.886;9.394;2022-10-16T03:31:14;47.50;;;45.27;;
21505;SDS011;10914;48.886;9.394;2022-10-16T03:33:39;52.73;;;49.83;;
21505;SDS011;10914;48.886;9.394;2022-10-16T03:36:04;42.15;;;40.10;;
21505;SDS011;10914;48.886;9.394;2022-10-16T03:38:30;42.88;;;40.78;;
21505;SDS011;10914;48.886;9.394;2022-10-16T03:40:55;40.22;;;38.22;;
21505;SDS011;10914;48.886;9.394;2022-10-16T03:43:20;43.00;;;40.97;;
21505;SDS011;10914;48.886;9.394;2022-10-16T03:45:45;40.40;;;38.40;;
21505;SDS011;10914;48.886;9.394;2022-10-16T03:48:10;39.55;;;37.10;;
21505;SDS011;10914;48.886;9.394;2022-10-16T03:50:36;38.20;;;36.17;;
21505;SDS011;10914;48.886;9.394;2022-10-16T03:53:01;41.63;;;39.57;;
21505;SDS011;10914;48.886;9.394;2022-10-16T03:55:26;42.72;;;40.45;;
21505;SDS011;10914;48.886;9.394;2022-10-16T03:57:51;38.38;;;36.50;;
21505;SDS011;10914;48.886;9.394;2022-10-16T04:00:16;37.40;;;35.57;;
21505;SDS011;10914;48.886;9.394;2022-10-16T04:02:42;40.28;;;38.35;;
21505;SDS011;10914;48.886;9.394;2022-10-16T04:05:07;46.28;;;44.00;;
21505;SDS011;10914;48.886;9.394;2022-10-16T04:07:32;50.15;;;47.67;;
21505;SDS011;10914;48.886;9.394;2022-10-16T04:09:58;48.47;;;45.95;;
21505;SDS011;10914;48.886;9.394;2022-10-16T04:12:24;45.58;;;43.15;;
21505;SDS011;10914;48.886;9.394;2022-10-16T04:14:49;47.47;;;45.20;;
21505;SDS011;10914;48.886;9.394;2022-10-16T04:17:15;42.97;;;40.87;;
21505;SDS011;10914;48.886;9.394;2022-10-16T04:19:41;40.17;;;38.28;;
21505;SDS011;10914;48.886;9.394;2022-10-16T04:22:06;44.47;;;42.27;;
21505;SDS011;10914;48.886;9.394;2022-10-16T04:24:31;40.85;;;38.75;;
21505;SDS011;10914;48.886;9.394;2022-10-16T04:26:56;38.40;;;36.50;;
21505;SDS011;10914;48.886;9.394;2022-10-16T04:29:21;36.93;;;35.13;;
21505;SDS011;10914;48.886;9.394;2022-10-16T04:31:46;38.10;;;36.30;;
21505;SDS011;10914;48.886;9.394;2022-10-16T04:34:12;37.28;;;35.40;;
21505;SDS011;10914;48.886;9.394;2022-10-16T04:36:37;36.83;;;35.10;;
21505;SDS011;10914;48.886;9.394;2022-10-16T04:39:02;37.17;;;35.35;;
21505;SDS011;10914;48.886;9.394;2022-10-16T04:41:27;37.00;;;35.10;;
21505;SDS011;10914;48.886;9.394;2022-10-16T04:43:53;64.47;;;61.43;;
21505;SDS011;10914;48.886;9.394;2022-10-16T04:46:18;48.97;;;46.45;;
21505;SDS011;10914;48.886;9.394;2022-10-16T04:48:43;41.88;;;39.67;;
21505;SDS011;10914;48.886;9.394;2022-10-16T04:51:08;40.75;;;38.65;;
21505;SDS011;10914;48.886;9.394;2022-10-16T04:53:33;44.70;;;42.50;;
21505;SDS011;10914;48.886;9.394;2022-10-16T04:55:59;37.60;;;35.47;;
21505;SDS011;10914;48.886;9.394;2022-10-16T04:58:24;47.20;;;44.77;;
21505;SDS011;10914;48.886;9.394;2022-10-16T05:00:49;49.33;;;46.83;;
21505;SDS011;10914;48.886;9.394;2022-10-16T05:03:14;36.33;;;34.22;;
21505;SDS011;10914;48.886;9.394;2022-10-16T05:05:43;38.70;;;36.70;;
21505;SDS011;10914;48.886;9.394;2022-10-16T05:08:09;39.97;;;37.88;;
21505;SDS011;10914;48.886;9.394;2022-10-16T05:10:35;43.88;;;41.50;;
21505;SDS011;10914;48.886;9.394;2022-10-16T05:13:00;46.70;;;44.50;;
21505;SDS011;10914;48.886;9.394;2022-10-16T05:15:25;43.57;;;41.37;;
21505;SDS011;10914;48.886;9.394;2022-10-16T05:17:52;45.07;;;42.77;;
21505;SDS011;10914;48.886;9.394;2022-10-16T05:20:17;49.67;;;47.17;;
21505;SDS011;10914;48.886;9.394;2022-10-16T05:22:42;48.57;;;45.97;;
21505;SDS011;10914;48.886;9.394;2022-10-16T05:25:07;53.97;;;51.20;;
21505;SDS011;10914;48.886;9.394;2022-10-16T05:27:33;48.22;;;45.80;;
21505;SDS011;10914;48.886;9.394;2022-10-16T05:29:58;46.47;;;44.00;;
21505;SDS011;10914;48.886;9.394;2022-10-16T05:32:23;57.17;;;54.28;;
21505;SDS011;10914;48.886;9.394;2022-10-16T05:34:48;44.27;;;42.03;;
21505;SDS011;10914;48.886;9.394;2022-10-16T05:37:13;45.83;;;43.47;;
21505;SDS011;10914;48.886;9.394;2022-10-16T05:39:39;47.72;;;45.42;;
21505;SDS011;10914;48.886;9.394;2022-10-16T05:42:04;56.92;;;54.22;;
21505;SDS011;10914;48.886;9.394;2022-10-16T05:44:30;53.33;;;50.78;;
21505;SDS011;10914;48.886;9.394;2022-10-16T05:46:55;56.58;;;53.80;;
21505;SDS011;10914;48.886;9.394;2022-10-16T05:49:20;56.88;;;54.15;;
21505;SDS011;10914;48.886;9.394;2022-10-16T05:51:45;57.42;;;54.58;;
21505;SDS011;10914;48.886;9.394;2022-10-16T05:54:10;52.03;;;49.53;;
21505;SDS011;10914;48.886;9.394;2022-10-16T05:56:36;53.35;;;50.40;;
21505;SDS011;10914;48.886;9.394;2022-10-16T05:59:02;56.05;;;53.25;;
21505;SDS011;10914;48.886;9.394;2022-10-16T06:01:28;52.17;;;49.38;;
21505;SDS011;10914;48.886;9.394;2022-10-16T06:03:53;54.50;;;51.85;;
21505;SDS011;10914;48.886;9.394;2022-10-16T06:06:19;58.25;;;55.50;;
21505;SDS011;10914;48.886;9.394;2022-10-16T06:08:45;56.30;;;53.55;;
21505;SDS011;10914;48.886;9.394;2022-10-16T06:11:12;48.53;;;46.17;;
21505;SDS011;10914;48.886;9.394;2022-10-16T06:13:38;47.65;;;45.35;;
21505;SDS011;10914;48.886;9.394;2022-10-16T06:16:04;63.47;;;60.30;;
21505;SDS011;10914;48.886;9.394;2022-10-16T06:18:29;55.85;;;52.97;;
21505;SDS011;10914;48.886;9.394;2022-10-16T06:20:55;51.30;;;48.83;;
21505;SDS011;10914;48.886;9.394;2022-10-16T06:23:21;55.80;;;53.10;;
21505;SDS011;10914;48.886;9.394;2022-10-16T06:25:47;55.92;;;53.05;;
21505;SDS011;10914;48.886;9.394;2022-10-16T06:28:13;59.63;;;56.67;;
21505;SDS011;10914;48.886;9.394;2022-10-16T06:30:38;55.30;;;52.65;;
21505;SDS011;10914;48.886;9.394;2022-10-16T06:33:03;67.93;;;64.43;;
21505;SDS011;10914;48.886;9.394;2022-10-16T06:35:29;57.60;;;54.58;;
21505;SDS011;10914;48.886;9.394;2022-10-16T06:37:54;64.43;;;61.45;;
21505;SDS011;10914;48.886;9.394;2022-10-16T06:40:19;58.75;;;55.80;;
21505;SDS011;10914;48.886;9.394;2022-10-16T06:42:44;58.27;;;55.30;;
21505;SDS011;10914;48.886;9.394;2022-10-16T06:45:10;67.25;;;64.03;;
21505;SDS011;10914;48.886;9.394;2022-10-16T06:47:35;67.90;;;64.50;;
21505;SDS011;10914;48.886;9.394;2022-10-16T06:50:01;59.30;;;56.40;;
21505;SDS011;10914;48.886;9.394;2022-10-16T06:52:27;66.63;;;63.43;;
21505;SDS011;10914;48.886;9.394;2022-10-16T06:54:53;60.50;;;57.22;;
21505;SDS011;10914;48.886;9.394;2022-10-16T06:57:18;55.60;;;52.83;;
21505;SDS011;10914;48.886;9.394;2022-10-16T06:59:43;42.27;;;40.00;;
21505;SDS011;10914;48.886;9.394;2022-10-16T07:02:08;56.70;;;53.83;;
21505;SDS011;10914;48.886;9.394;2022-10-16T07:04:35;62.92;;;59.78;;
21505;SDS011;10914;48.886;9.394;2022-10-16T07:07:00;50.67;;;48.20;;
21505;SDS011;10914;48.886;9.394;2022-10-16T07:09:26;56.72;;;54.03;;
21505;SDS011;10914;48.886;9.394;2022-10-16T07:11:51;58.57;;;55.57;;
21505;SDS011;10914;48.886;9.394;2022-10-16T07:14:17;55.08;;;52.40;;
21505;SDS011;10914;48.886;9.394;2022-10-16T07:16:42;32.15;;;30.55;;
21505;SDS011;10914;48.886;9.394;2022-10-16T07:19:08;51.50;;;49.00;;
21505;SDS011;10914;48.886;9.394;2022-10-16T07:21:33;41.50;;;39.30;;
21505;SDS011;10914;48.886;9.394;2022-10-16T07:24:01;38.95;;;36.78;;
21505;SDS011;10914;48.886;9.394;2022-10-16T07:26:28;36.60;;;34.72;;
21505;SDS011;10914;48.886;9.394;2022-10-16T07:28:54;68.47;;;64.90;;
21505;SDS011;10914;48.886;9.394;2022-10-16T07:31:20;39.78;;;37.72;;
21505;SDS011;10914;48.886;9.394;2022-10-16T07:33:46;48.50;;;46.10;;
21505;SDS011;10914;48.886;9.394;2022-10-16T07:36:13;39.50;;;37.50;;
21505;SDS011;10914;48.886;9.394;2022-10-16T07:38:38;30.05;;;28.25;;
21505;SDS011;10914;48.886;9.394;2022-10-16T07:41:07;29.23;;;27.52;;
21505;SDS011;10914;48.886;9.394;2022-10-16T07:43:33;25.33;;;24.02;;
21505;SDS011;10914;48.886;9.394;2022-10-16T07:45:58;29.88;;;28.08;;
21505;SDS011;10914;48.886;9.394;2022-10-16T07:48:26;29.55;;;27.95;;
21505;SDS011;10914;48.886;9.394;2022-10-16T07:50:52;32.75;;;31.08;;
21505;SDS011;10914;48.886;9.394;2022-10-16T07:53:17;31.87;;;30.20;;
21505;SDS011;10914;48.886;9.394;2022-10-16T07:55:42;33.00;;;31.25;;
21505;SDS011;10914;48.886;9.394;2022-10-16T07:58:08;36.25;;;34.45;;
21505;SDS011;10914;48.886;9.394;2022-10-16T08:00:33;39.38;;;37.28;;
21505;SDS011;10914;48.886;9.394;2022-10-16T08:02:59;42.95;;;40.75;;
21505;SDS011;10914;48.886;9.394;2022-10-16T08:05:28;42.72;;;40.30;;
21505;SDS011;10914;48.886;9.394;2022-10-16T08:07:54;30.55;;;28.75;;
21505;SDS011;10914;48.886;9.394;2022-10-16T08:10:20;28.50;;;26.90;;
21505;SDS011;10914;48.886;9.394;2022-10-16T08:12:47;50.47;;;47.72;;
21505;SDS011;10914;48.886;9.394;2022-10-16T08:15:12;38.90;;;36.77;;
21505;SDS011;10914;48.886;9.394;2022-10-16T08:17:37;31.48;;;29.77;;
21505;SDS011;10914;48.886;9.394;2022-10-16T08:20:03;36.00;;;34.22;;
21505;SDS011;10914;48.886;9.394;2022-10-16T08:22:28;38.88;;;36.97;;
21505;SDS011;10914;48.886;9.394;2022-10-16T08:24:53;40.40;;;38.07;;
21505;SDS011;10914;48.886;9.394;2022-10-16T08:27:19;41.17;;;38.93;;
21505;SDS011;10914;48.886;9.394;2022-10-16T08:29:44;29.23;;;27.63;;
21505;SDS011;10914;48.886;9.394;2022-10-16T08:32:09;27.87;;;26.27;;
21505;SDS011;10914;48.886;9.394;2022-10-16T08:34:34;27.67;;;26.17;;
21505;SDS011;10914;48.886;9.394;2022-10-16T08:36:59;26.67;;;25.27;;
21505;SDS011;10914;48.886;9.394;2022-10-16T08:39:25;25.23;;;23.77;;
21505;SDS011;10914;48.886;9.394;2022-10-16T08:47:23;27.52;;;26.00;;
21505;SDS011;10914;48.886;9.394;2022-10-16T08:52:17;27.58;;;25.92;;
21505;SDS011;10914;48.886;9.394;2022-10-16T08:54:43;27.37;;;25.93;;
21505;SDS011;10914;48.886;9.394;2022-10-16T08:57:14;28.98;;;27.38;;
21505;SDS011;10914;48.886;9.394;2022-10-16T08:59:41;23.83;;;22.42;;
21505;SDS011;10914;48.886;9.394;2022-10-16T09:05:03;26.77;;;25.48;;
21505;SDS011;10914;48.886;9.394;2022-10-16T09:07:39;30.10;;;28.27;;
21505;SDS011;10914;48.886;9.394;2022-10-16T09:12:37;25.42;;;23.85;;
21505;SDS011;10914;48.886;9.394;2022-10-16T09:15:12;26.10;;;24.63;;
21505;SDS011;10914;48.886;9.394;2022-10-16T09:20:18;24.35;;;23.05;;
21505;SDS011;10914;48.886;9.394;2022-10-16T09:22:45;24.20;;;22.80;;
21505;SDS011;10914;48.886;9.394;2022-10-16T09:25:14;23.95;;;22.65;;
21505;SDS011;10914;48.886;9.394;2022-10-16T09:27:40;22.75;;;21.20;;
21505;SDS011;10914;48.886;9.394;2022-10-16T09:30:18;23.92;;;22.65;;
21505;SDS011;10914;48.886;9.394;2022-10-16T09:32:44;21.88;;;20.77;;
21505;SDS011;10914;48.886;9.394;2022-10-16T09:35:17;22.65;;;21.25;;
21505;SDS011;10914;48.886;9.394;2022-10-16T09:37:43;20.80;;;19.80;;
21505;SDS011;10914;48.886;9.394;2022-10-16T09:40:51;20.80;;;19.60;;
21505;SDS011;10914;48.886;9.394;2022-10-16T09:43:15;20.15;;;19.08;;
21505;SDS011;10914;48.886;9.394;2022-10-16T09:46:27;21.42;;;20.23;;
21505;SDS011;10914;48.886;9.394;2022-10-16T09:48:43;20.38;;;19.25;;
21505;SDS011;10914;48.886;9.394;2022-10-16T09:56:35;20.67;;;19.48;;
21505;SDS011;10914;48.886;9.394;2022-10-16T09:59:03;20.40;;;19.27;;
21505;SDS011;10914;48.886;9.394;2022-10-16T10:01:40;22.48;;;21.17;;
21505;SDS011;10914;48.886;9.394;2022-10-16T10:04:06;20.23;;;19.25;;
21505;SDS011;10914;48.886;9.394;2022-10-16T10:06:33;20.13;;;18.92;;
21505;SDS011;10914;48.886;9.394;2022-10-16T10:11:43;20.03;;;19.03;;
21505;SDS011;10914;48.886;9.394;2022-10-16T10:16:40;21.30;;;20.23;;
21505;SDS011;10914;48.886;9.394;2022-10-16T10:19:09;20.95;;;19.83;;
21505;SDS011;10914;48.886;9.394;2022-10-16T10:21:38;23.08;;;21.90;;
21505;SDS011;10914;48.886;9.394;2022-10-16T10:24:03;21.65;;;20.45;;
21505;SDS011;10914;48.886;9.394;2022-10-16T10:26:30;21.00;;;19.90;;
21505;SDS011;10914;48.886;9.394;2022-10-16T10:29:02;19.40;;;18.50;;
21505;SDS011;10914;48.886;9.394;2022-10-16T10:33:58;18.50;;;17.60;;
21505;SDS011;10914;48.886;9.394;2022-10-16T10:36:39;17.55;;;16.75;;
21505;SDS011;10914;48.886;9.394;2022-10-16T10:54:28;18.13;;;17.33;;
21505;SDS011;10914;48.886;9.394;2022-10-16T10:57:10;17.25;;;16.35;;
21505;SDS011;10914;48.886;9.394;2022-10-16T10:59:49;19.27;;;18.27;;
21505;SDS011;10914;48.886;9.394;2022-10-16T11:05:08;17.70;;;16.63;;
21505;SDS011;10914;48.886;9.394;2022-10-16T11:07:39;17.15;;;16.00;;
21505;SDS011;10914;48.886;9.394;2022-10-16T11:10:27;17.85;;;16.88;;
21505;SDS011;10914;48.886;9.394;2022-10-16T11:12:52;16.20;;;15.10;;
21505;SDS011;10914;48.886;9.394;2022-10-16T11:17:48;17.52;;;16.52;;
21505;SDS011;10914;48.886;9.394;2022-10-16T11:20:19;17.05;;;16.08;;
21505;SDS011;10914;48.886;9.394;2022-10-16T11:23:10;16.08;;;15.27;;
21505;SDS011;10914;48.886;9.394;2022-10-16T11:25:32;15.30;;;14.45;;
21505;SDS011;10914;48.886;9.394;2022-10-16T11:28:07;19.70;;;18.60;;
21505;SDS011;10914;48.886;9.394;2022-10-16T11:30:39;18.45;;;17.55;;
21505;SDS011;10914;48.886;9.394;2022-10-16T11:38:02;16.02;;;15.23;;
21505;SDS011;10914;48.886;9.394;2022-10-16T11:40:29;17.80;;;16.85;;
21505;SDS011;10914;48.886;9.394;2022-10-16T11:43:00;18.30;;;17.15;;
21505;SDS011;10914;48.886;9.394;2022-10-16T11:45:36;19.60;;;18.40;;
21505;SDS011;10914;48.886;9.394;2022-10-16T11:48:12;16.48;;;15.68;;
21505;SDS011;10914;48.886;9.394;2022-10-16T11:50:48;19.00;;;18.10;;
21505;SDS011;10914;48.886;9.394;2022-10-16T11:53:29;19.92;;;18.90;;
21505;SDS011;10914;48.886;9.394;2022-10-16T11:55:57;20.30;;;19.10;;
21505;SDS011;10914;48.886;9.394;2022-10-16T11:58:25;17.73;;;16.52;;
21505;SDS011;10914;48.886;9.394;2022-10-16T12:06:22;19.98;;;18.77;;
21505;SDS011;10914;48.886;9.394;2022-10-16T12:08:51;20.73;;;19.67;;
21505;SDS011;10914;48.886;9.394;2022-10-16T12:11:24;18.80;;;17.90;;
21505;SDS011;10914;48.886;9.394;2022-10-16T12:19:17;17.02;;;16.00;;
21505;SDS011;10914;48.886;9.394;2022-10-16T12:21:43;17.10;;;15.90;;
21505;SDS011;10914;48.886;9.394;2022-10-16T12:27:27;16.30;;;15.35;;
21505;SDS011;10914;48.886;9.394;2022-10-16T12:29:54;16.05;;;15.25;;
21505;SDS011;10914;48.886;9.394;2022-10-16T12:32:32;16.17;;;15.38;;
21505;SDS011;10914;48.886;9.394;2022-10-16T12:34:58;16.50;;;15.55;;
21505;SDS011;10914;48.886;9.394;2022-10-16T12:37:26;15.05;;;14.32;;
21505;SDS011;10914;48.886;9.394;2022-10-16T12:39:52;15.80;;;14.90;;
21505;SDS011;10914;48.886;9.394;2022-10-16T12:44:53;16.95;;;16.08;;
21505;SDS011;10914;48.886;9.394;2022-10-16T12:47:19;18.52;;;17.55;;
21505;SDS011;10914;48.886;9.394;2022-10-16T12:49:49;16.42;;;15.63;;
21505;SDS011;10914;48.886;9.394;2022-10-16T12:55:16;16.40;;;15.60;;
21505;SDS011;10914;48.886;9.394;2022-10-16T12:58:27;16.50;;;15.60;;
21505;SDS011;10914;48.886;9.394;2022-10-16T13:00:42;16.52;;;15.63;;
21505;SDS011;10914;48.886;9.394;2022-10-16T13:03:31;16.88;;;15.98;;
21505;SDS011;10914;48.886;9.394;2022-10-16T13:13:39;19.60;;;18.50;;
21505;SDS011;10914;48.886;9.394;2022-10-16T13:23:42;17.63;;;16.73;;
21505;SDS011;10914;48.886;9.394;2022-10-16T13:28:38;17.97;;;16.80;;
21505;SDS011;10914;48.886;9.394;2022-10-16T13:31:03;17.88;;;16.98;;
21505;SDS011;10914;48.886;9.394;2022-10-16T13:35:55;23.50;;;21.97;;
21505;SDS011;10914;48.886;9.394;2022-10-16T13:38:22;20.70;;;19.52;;
21505;SDS011;10914;48.886;9.394;2022-10-16T13:40:52;17.88;;;16.88;;
21505;SDS011;10914;48.886;9.394;2022-10-16T13:43:18;18.42;;;17.27;;
21505;SDS011;10914;48.886;9.394;2022-10-16T13:45:52;17.73;;;16.83;;
21505;SDS011;10914;48.886;9.394;2022-10-16T13:48:17;18.17;;;17.27;;
21505;SDS011;10914;48.886;9.394;2022-10-16T13:50:42;18.40;;;17.33;;
21505;SDS011;10914;48.886;9.394;2022-10-16T13:53:12;18.80;;;17.70;;
21505;SDS011;10914;48.886;9.394;2022-10-16T13:55:38;18.40;;;17.40;;
21505;SDS011;10914;48.886;9.394;2022-10-16T13:58:13;19.88;;;18.48;;
21505;SDS011;10914;48.886;9.394;2022-10-16T14:00:38;18.33;;;17.42;;
21505;SDS011;10914;48.886;9.394;2022-10-16T14:03:05;19.13;;;18.08;;
21505;SDS011;10914;48.886;9.394;2022-10-16T14:05:31;19.10;;;18.00;;
21505;SDS011;10914;48.886;9.394;2022-10-16T14:07:57;18.77;;;17.85;;
21505;SDS011;10914;48.886;9.394;2022-10-16T14:10:29;18.50;;;17.50;;
21505;SDS011;10914;48.886;9.394;2022-10-16T14:12:59;18.13;;;17.13;;
21505;SDS011;10914;48.886;9.394;2022-10-16T14:15:25;18.52;;;17.63;;
21505;SDS011;10914;48.886;9.394;2022-10-16T14:17:50;20.48;;;19.48;;
21505;SDS011;10914;48.886;9.394;2022-10-16T14:20:16;20.02;;;18.90;;
21505;SDS011;10914;48.886;9.394;2022-10-16T14:22:42;19.45;;;18.45;;
21505;SDS011;10914;48.886;9.394;2022-10-16T14:27:46;23.90;;;22.52;;
21505;SDS011;10914;48.886;9.394;2022-10-16T14:30:21;32.92;;;31.30;;
21505;SDS011;10914;48.886;9.394;2022-10-16T14:33:00;23.15;;;22.00;;
21505;SDS011;10914;48.886;9.394;2022-10-16T14:37:52;20.57;;;19.43;;
21505;SDS011;10914;48.886;9.394;2022-10-16T14:40:17;21.30;;;20.13;;
21505;SDS011;10914;48.886;9.394;2022-10-16T14:42:43;23.30;;;21.85;;
21505;SDS011;10914;48.886;9.394;2022-10-16T14:45:09;27.17;;;25.45;;
21505;SDS011;10914;48.886;9.394;2022-10-16T14:47:35;27.55;;;25.85;;
21505;SDS011;10914;48.886;9.394;2022-10-16T14:50:02;22.88;;;21.67;;
21505;SDS011;10914;48.886;9.394;2022-10-16T14:52:27;21.25;;;20.05;;
21505;SDS011;10914;48.886;9.394;2022-10-16T14:54:52;22.10;;;20.90;;
21505;SDS011;10914;48.886;9.394;2022-10-16T14:57:20;22.08;;;21.08;;
21505;SDS011;10914;48.886;9.394;2022-10-16T14:59:47;23.67;;;22.38;;
21505;SDS011;10914;48.886;9.394;2022-10-16T15:04:47;26.85;;;25.33;;
21505;SDS011;10914;48.886;9.394;2022-10-16T15:07:13;29.60;;;28.08;;
21505;SDS011;10914;48.886;9.394;2022-10-16T15:09:38;30.58;;;29.08;;
21505;SDS011;10914;48.886;9.394;2022-10-16T15:12:03;27.95;;;26.38;;
21505;SDS011;10914;48.886;9.394;2022-10-16T15:14:29;27.17;;;25.80;;
21505;SDS011;10914;48.886;9.394;2022-10-16T15:16:54;34.88;;;33.17;;
21505;SDS011;10914;48.886;9.394;2022-10-16T15:19:19;30.50;;;28.83;;
21505;SDS011;10914;48.886;9.394;2022-10-16T15:21:44;29.25;;;27.75;;
21505;SDS011;10914;48.886;9.394;2022-10-16T15:24:13;27.80;;;26.40;;
21505;SDS011;10914;48.886;9.394;2022-10-16T15:26:38;23.30;;;22.10;;
21505;SDS011;10914;48.886;9.394;2022-10-16T15:29:04;21.08;;;19.98;;
21505;SDS011;10914;48.886;9.394;2022-10-16T15:31:29;22.52;;;21.23;;
21505;SDS011;10914;48.886;9.394;2022-10-16T15:33:55;23.13;;;21.83;;
21505;SDS011;10914;48.886;9.394;2022-10-16T15:36:27;22.95;;;21.65;;
21505;SDS011;10914;48.886;9.394;2022-10-16T15:38:52;21.85;;;20.65;;
21505;SDS011;10914;48.886;9.394;2022-10-16T15:41:18;22.48;;;21.17;;
21505;SDS011;10914;48.886;9.394;2022-10-16T15:43:43;22.20;;;21.00;;
21505;SDS011;10914;48.886;9.394;2022-10-16T15:46:09;21.80;;;20.40;;
21505;SDS011;10914;48.886;9.394;2022-10-16T15:48:36;21.05;;;19.48;;
21505;SDS011;10914;48.886;9.394;2022-10-16T15:51:04;22.40;;;21.10;;
21505;SDS011;10914;48.886;9.394;2022-10-16T15:53:29;21.77;;;20.33;;
21505;SDS011;10914;48.886;9.394;2022-10-16T15:55:55;22.42;;;21.10;;
21505;SDS011;10914;48.886;9.394;2022-10-16T15:58:20;21.17;;;20.13;;
21505;SDS011;10914;48.886;9.394;2022-10-16T16:00:45;21.85;;;20.38;;
21505;SDS011;10914;48.886;9.394;2022-10-16T16:03:18;23.25;;;21.95;;
21505;SDS011;10914;48.886;9.394;2022-10-16T16:05:43;21.97;;;20.57;;
21505;SDS011;10914;48.886;9.394;2022-10-16T16:08:08;23.97;;;22.60;;
21505;SDS011;10914;48.886;9.394;2022-10-16T16:10:34;27.55;;;26.00;;
21505;SDS011;10914;48.886;9.394;2022-10-16T16:12:59;29.40;;;27.90;;
21505;SDS011;10914;48.886;9.394;2022-10-16T16:15:24;23.73;;;22.48;;